Terminal Aerodrome Forecast
Issued by NWS Charleston, SC

Home | Current Version | Previous Version | Text Only | Print | Product List | Glossary On
Versions: 1 2 3 4 5 6 7 8 9 10 11 12 13 14
000
FTUS42 KCHS 291122 CCA
TAFCHS
TAF COR
KCHS 291122Z 2912/3012 29009KT P6SM SCT200
     FM291800 24012G18KT P6SM SCT050
     FM300000 21009KT P6SM SCT050 BKN150=

USA.gov is the U.S. government's official web portal to all federal, state and local government web resources and services.